Latest Weather Observations for Cape Sorell

IDT60801

Issued at 10:02 pm EST Wednesday 28 June 2017 (issued every 30 minutes, with the page automatically refreshed every 10 minutes)

About weather observations | Map of weather stations | Latest weather observations for TAS | Other Formats
Station Details ID: 097000 Name: CAPE SORELL Lat: -42.20 Lon: 145.17 Height: 19.3 m
Data from the previous 72 hours. | See also: Recent months at Cape Sorell
Date/Time
EST
Temp
°C
App
Temp
°C
Dew
Point
°C
Rel
Hum
%
Delta-T
°C
Wind Press
QNH
hPa
Press
MSL
hPa
Rain since
9am
mm
Dir  Spd
km/h
Gust
km/h
Spd
kts
Gust
kts
28/10:00pm 11.1 8.2 8.0 81 1.5 WNW 13 20 7 11 1018.7 1018.7 0.2
28/09:30pm 10.8 7.8 7.7 81 1.5 NW 13 19 7 10 1018.9 1018.9 0.2
28/09:00pm 10.5 7.4 7.4 81 1.5 NW 13 19 7 10 1019.1 1019.1 0.2
28/08:30pm 10.7 7.6 7.4 80 1.6 W 13 19 7 10 1019.2 1019.2 0.2
28/08:00pm 10.9 7.4 7.4 79 1.7 WNW 15 19 8 10 1019.3 1019.3 0.2
28/07:30pm 11.1 8.1 7.6 79 1.7 WNW 13 19 7 10 1019.3 1019.3 0.2
28/07:00pm 11.0 8.0 7.7 80 1.6 W 13 19 7 10 1019.3 1019.3 0.2
28/06:30pm 10.9 7.9 7.6 80 1.6 W 13 20 7 11 1019.2 1019.2 0.2
28/06:00pm 11.0 8.0 7.7 80 1.6 W 13 19 7 10 1019.1 1019.1 0.2
28/05:30pm 11.1 8.1 7.8 80 1.6 W 13 19 7 10 1019.2 1019.2 0.2
28/05:00pm 11.2 8.3 8.1 81 1.5 W 13 19 7 10 1019.0 1019.0 0.2
28/04:30pm 11.3 8.1 8.3 82 1.5 WSW 15 19 8 10 1018.8 1018.8 0.2
28/04:00pm 11.4 8.2 8.4 82 1.5 WSW 15 19 8 10 1018.6 1018.6 0.2
28/03:30pm 11.9 7.9 9.1 83 1.4 WSW 20 24 11 13 1018.4 1018.4 0.2
28/03:00pm 11.6 7.2 8.8 83 1.4 WSW 22 28 12 15 1018.4 1018.4 0.2
28/02:30pm 11.9 9.2 8.9 82 1.5 NW 13 24 7 13 1018.4 1018.4 0.2
28/02:00pm 12.7 9.0 9.3 80 1.7 N 19 24 10 13 1018.6 1018.6 0.0
28/01:30pm 11.3 8.8 8.0 80 1.6 NNE 11 15 6 8 1018.9 1018.9 0.0
28/01:00pm 10.9 6.7 7.6 80 1.6 NNE 19 22 10 12 1019.1 1019.1 0.0
28/12:30pm 10.8 6.0 7.3 79 1.7 NNE 22 26 12 14 1019.2 1019.2 0.0
28/12:00pm 11.4 5.8 7.3 76 2.0 N 26 30 14 16 1019.4 1019.4 0.0
28/11:30am 11.0 6.6 6.7 75 2.0 NNE 19 24 10 13 1019.7 1019.7 0.0
28/11:00am 11.0 6.1 6.9 76 1.9 NNE 22 28 12 15 1019.9 1019.9 0.0
28/10:30am 10.7 6.1 6.5 75 2.0 NNE 20 24 11 13 1020.0 1020.0 0.0
28/10:00am 10.5 5.9 6.5 76 1.9 NE 20 24 11 13 1020.1 1020.1 0.0
28/09:30am 10.5 6.0 6.3 75 2.0 NE 19 22 10 12 1020.1 1020.1 0.0
28/09:00am 10.4 5.7 6.0 74 2.0 NNE 20 24 11 13 1020.2 1020.2 0.8
28/08:30am 10.6 5.1 5.8 72 2.2 NNE 24 28 13 15 1020.1 1020.1 0.8
28/08:00am 10.5 4.6 5.7 72 2.2 NNE 26 32 14 17 1019.9 1019.9 0.8
28/07:30am 10.5 4.6 5.9 73 2.1 NNE 26 30 14 16 1019.9 1019.9 0.8
28/07:00am 10.4 4.1 5.8 73 2.1 NNE 28 33 15 18 1019.8 1019.8 0.8
28/06:30am 10.4 4.5 5.8 73 2.1 NNE 26 32 14 17 1019.8 1019.8 0.8
28/06:00am 10.2 3.9 5.6 73 2.1 NNE 28 32 15 17 1019.7 1019.7 0.8
28/05:30am 10.3 3.6 5.7 73 2.1 NNE 30 35 16 19 1019.7 1019.7 0.8
28/05:00am 10.1 3.0 5.5 73 2.1 NNE 32 37 17 20 1019.6 1019.6 0.8
28/04:30am 10.3 3.2 5.5 72 2.2 NNE 32 35 17 19 1019.7 1019.7 0.8
28/04:00am 10.4 3.3 5.6 72 2.2 NNE 32 35 17 19 1019.8 1019.8 0.8
28/03:30am 10.4 3.7 5.6 72 2.2 NNE 30 37 16 20 1019.8 1019.8 0.8
28/03:00am 10.6 4.0 6.0 73 2.1 NNE 30 37 16 20 1019.7 1019.7 0.8
28/02:30am 10.6 3.7 6.4 75 2.0 NNE 32 37 17 20 1019.7 1019.7 0.8
28/02:00am 10.3 3.4 6.5 77 1.8 NNE 32 35 17 19 1019.8 1019.8 0.8
28/01:30am 10.4 4.0 6.9 79 1.7 NNE 30 35 16 19 1019.7 1019.7 0.8
28/01:00am 10.1 3.7 6.8 80 1.5 NNE 30 37 16 20 1019.8 1019.8 0.8
28/12:30am 10.1 3.4 7.2 82 1.4 NNE 32 37 17 20 1020.0 1020.0 0.8
28/12:00am 10.0 3.7 7.3 83 1.3 NNE 30 33 16 18 1020.1 1020.1 0.8
 
Date/Time
EST
Temp
°C
App
Temp
°C
Dew
Point
°C
Rel
Hum
%
Delta-T
°C
Wind Press
QNH
hPa
Press
MSL
hPa
Rain since
9am
mm
Dir  Spd
km/h
Gust
km/h
Spd
kts
Gust
kts
27/11:30pm 9.9 3.6 7.3 84 1.2 NNE 30 35 16 19 1020.2 1020.2 0.8
27/11:00pm 9.6 4.0 7.0 84 1.2 NNE 26 32 14 17 1020.5 1020.5 0.8
27/10:30pm 9.9 4.7 7.3 84 1.2 NNE 24 28 13 15 1020.7 1020.7 0.4
27/10:00pm 9.9 4.7 7.2 83 1.3 NNE 24 30 13 16 1020.6 1020.6 0.4
27/09:30pm 10.0 4.5 7.4 84 1.2 NNE 26 30 14 16 1020.6 1020.6 0.4
27/09:00pm 9.8 4.2 7.2 84 1.2 NNE 26 32 14 17 1020.8 1020.8 0.4
27/08:30pm 9.8 4.2 7.2 84 1.2 NNE 26 30 14 16 1020.8 1020.8 0.4
27/08:00pm 9.9 4.4 7.5 85 1.1 NNE 26 30 14 16 1020.8 1020.8 0.4
27/07:30pm 9.9 5.1 7.3 84 1.2 NNE 22 30 12 16 1020.8 1020.8 0.4
27/07:00pm 10.4 4.6 7.8 84 1.2 N 28 33 15 18 1020.7 1020.7 0.4
27/06:30pm 10.1 4.2 7.7 85 1.2 N 28 39 15 21 1020.6 1020.6 0.4
27/06:00pm 10.1 4.6 7.7 85 1.1 N 26 32 14 17 1020.6 1020.6 0.4
27/05:30pm 9.9 6.4 7.3 84 1.2 NNW 15 22 8 12 1020.7 1020.7 0.4
27/05:00pm 10.1 5.3 7.5 84 1.2 N 22 28 12 15 1020.6 1020.6 0.2
27/04:30pm 9.9 2.9 7.0 82 1.4 N 33 43 18 23 1020.7 1020.7 0.2
27/04:00pm 9.8 4.1 6.7 81 1.4 NNE 26 35 14 19 1020.7 1020.7 0.2
27/03:30pm 9.9 5.9 6.6 80 1.5 N 17 28 9 15 1020.8 1020.8 0.0
27/03:00pm 10.2 5.7 6.2 76 1.9 NNW 19 26 10 14 1021.0 1021.0 0.0
27/02:30pm 10.8 4.9 5.8 71 2.3 N 26 35 14 19 1021.0 1021.0 0.0
27/02:00pm 10.9 4.5 5.4 69 2.5 NNE 28 32 15 17 1021.0 1021.0 0.0
27/01:30pm 10.6 6.0 5.4 70 2.4 NNE 19 24 10 13 1021.3 1021.3 0.0
27/01:00pm 10.3 5.4 5.3 71 2.3 NNE 20 24 11 13 1021.6 1021.6 0.0
27/12:30pm 10.1 5.2 5.1 71 2.3 NNE 20 26 11 14 1022.0 1022.0 0.0
27/12:00pm 9.9 4.6 5.1 72 2.2 NNE 22 26 12 14 1022.4 1022.4 0.0
27/11:30am 9.5 4.1 4.7 72 2.1 NNE 22 26 12 14 1022.8 1022.8 0.0
27/11:00am 9.3 3.9 4.7 73 2.0 NE 22 26 12 14 1023.0 1023.0 0.0
27/10:30am 9.6 4.0 5.2 74 2.0 NE 24 28 13 15 1023.1 1023.1 0.0
27/10:00am 8.9 3.6 4.9 76 1.8 NNE 22 26 12 14 1023.3 1023.3 0.0
27/09:30am 8.9 4.2 5.1 77 1.7 NNE 19 22 10 12 1023.4 1023.4 0.0
27/09:00am 8.7 3.9 4.9 77 1.7 NE 19 22 10 12 1023.2 1023.2 0.0
27/08:30am 8.9 4.9 4.9 76 1.8 NE 15 20 8 11 1023.3 1023.3 0.0
27/08:00am 8.9 4.1 4.9 76 1.8 NE 19 22 10 12 1023.1 1023.1 0.0
27/07:30am 9.0 4.7 5.2 77 1.7 NE 17 19 9 10 1023.1 1023.1 0.0
27/07:00am 9.0 4.7 5.4 78 1.6 NE 17 20 9 11 1023.1 1023.1 0.0
27/06:30am 8.4 4.8 4.8 78 1.6 ENE 13 17 7 9 1023.2 1023.2 0.0
27/06:00am 8.9 4.6 5.3 78 1.6 NE 17 20 9 11 1023.1 1023.1 0.0
27/05:30am 9.0 4.7 5.4 78 1.6 NNE 17 20 9 11 1023.1 1023.1 0.0
27/05:00am 9.1 5.2 5.5 78 1.6 NE 15 19 8 10 1023.1 1023.1 0.0
27/04:30am 9.3 5.1 5.7 78 1.6 NNE 17 20 9 11 1023.3 1023.3 0.0
27/04:00am 8.7 5.5 4.9 77 1.7 NE 11 15 6 8 1023.4 1023.4 0.0
27/03:30am 8.1 4.7 4.1 76 1.7 ENE 11 13 6 7 1023.3 1023.3 0.0
27/03:00am 7.8 4.0 3.8 76 1.7 E 13 17 7 9 1023.4 1023.4 0.0
27/02:30am 8.1 4.3 4.1 76 1.7 ENE 13 17 7 9 1023.5 1023.5 0.0
27/02:00am 8.6 5.3 4.4 75 1.8 ENE 11 15 6 8 1023.4 1023.4 0.0
27/01:30am 9.6 6.4 5.2 74 2.0 NE 11 15 6 8 1023.4 1023.4 0.0
27/01:00am 9.8 6.3 5.6 75 1.9 NNE 13 15 7 8 1023.3 1023.3 0.0
27/12:30am 9.7 6.5 5.3 74 2.0 NNE 11 15 6 8 1023.6 1023.6 0.0
27/12:00am 9.8 6.6 5.2 73 2.1 NNE 11 15 6 8 1023.9 1023.9 0.0
 
Date/Time
EST
Temp
°C
App
Temp
°C
Dew
Point
°C
Rel
Hum
%
Delta-T
°C
Wind Press
QNH
hPa
Press
MSL
hPa
Rain since
9am
mm
Dir  Spd
km/h
Gust
km/h
Spd
kts
Gust
kts
26/11:30pm 9.7 6.9 5.1 73 2.1 NE 9 13 5 7 1023.9 1023.9 0.0
26/11:00pm 9.9 6.7 5.1 72 2.2 NE 11 15 6 8 1024.0 1024.0 0.0
26/10:30pm 9.7 7.7 4.3 69 2.4 E 4 6 2 3 1024.1 1024.1 0.0
26/10:00pm 10.3 8.3 4.5 67 2.6 N 4 7 2 4 1024.1 1024.1 0.0
26/09:30pm 10.2 7.5 2.8 60 3.2 NNW 6 9 3 5 1023.9 1023.9 0.0
26/09:00pm 10.3 7.7 3.1 61 3.1 N 6 7 3 4 1023.7 1023.7 0.0
26/08:30pm 10.1 7.4 2.9 61 3.1 N 6 7 3 4 1023.6 1023.6 0.0
26/08:00pm 9.5 7.6 2.6 62 2.9 NE 2 6 1 3 1023.4 1023.4 0.0
26/07:30pm 9.8 7.1 3.5 65 2.7 W 7 11 4 6 1023.3 1023.3 0.0
26/07:00pm 10.3 6.6 4.5 67 2.6 WSW 13 19 7 10 1023.1 1023.1 0.0
26/06:30pm 10.1 8.1 4.3 67 2.6 WSW 4 7 2 4 1023.0 1023.0 0.0
26/06:00pm 10.1 6.4 4.5 68 2.5 SSW 13 15 7 8 1022.8 1022.8 0.0
26/05:30pm 9.9 7.0 4.5 69 2.4 SW 9 13 5 7 1022.5 1022.5 0.0
26/05:00pm 9.7 6.4 4.3 69 2.4 WSW 11 13 6 7 1022.4 1022.4 0.0
26/04:30pm 9.9 6.6 4.5 69 2.4 WSW 11 17 6 9 1022.3 1022.3 0.0
26/04:00pm 10.2 5.8 4.6 68 2.5 WSW 17 22 9 12 1022.2 1022.2 0.0
26/03:30pm 10.6 6.6 4.7 67 2.7 WSW 15 20 8 11 1022.2 1022.2 0.0
26/03:00pm 10.6 6.6 4.7 67 2.6 WSW 15 20 8 11 1021.8 1021.8 0.0
26/02:30pm 11.3 7.8 5.6 68 2.6 WSW 13 19 7 10 1021.5 1021.5 0.0
26/02:00pm 11.3 8.0 6.2 71 2.4 WSW 13 19 7 10 1021.3 1021.3 0.0
26/01:30pm 10.4 5.8 5.6 72 2.2 SW 19 24 10 13 1021.3 1021.3 0.0
26/01:00pm 11.3 7.3 6.6 73 2.2 SW 17 20 9 11 1021.2 1021.2 0.0
26/12:30pm 10.5 4.3 6.3 75 2.0 SW 28 32 15 17 1021.2 1021.2 0.0
26/12:00pm 10.7 6.2 6.8 77 1.8 SW 20 24 11 13 1021.3 1021.3 0.0
26/11:30am 10.1 4.3 6.3 77 1.8 SW 26 32 14 17 1021.3 1021.3 0.0
26/11:00am 10.9 5.9 6.6 75 2.0 SW 22 28 12 15 1021.2 1021.2 0.0
26/10:30am 10.7 5.0 6.6 76 1.9 SW 26 32 14 17 1021.0 1021.0 0.0
26/10:00am 10.2 5.6 6.5 78 1.7 SW 20 26 11 14 1020.7 1020.7 0.0
26/09:30am 9.4 4.7 6.1 80 1.5 SW 20 26 11 14 1020.3 1020.3 0.0
26/09:00am 9.6 4.2 6.5 81 1.4 WSW 24 28 13 15 1019.8 1019.8 4.2
26/08:30am 9.5 3.0 6.6 82 1.4 WSW 30 35 16 19 1019.2 1019.2 4.2
26/08:00am 9.5 3.0 6.6 82 1.3 WSW 30 35 16 19 1018.7 1018.7 4.0
26/07:30am 8.9 3.1 6.2 83 1.2 SW 26 30 14 16 1018.6 1018.6 4.0
26/07:00am 9.2 2.7 6.5 83 1.2 SW 30 37 16 20 1018.5 1018.5 4.0
26/06:30am 8.7 3.2 5.8 82 1.3 SW 24 28 13 15 1018.1 1018.1 4.0
26/06:00am 8.8 3.7 5.9 82 1.3 SW 22 37 12 20 1017.6 1017.6 4.0
26/05:37am 9.1 2.9 6.0 81 1.4 SW 28 43 15 23 1017.2 1017.2 3.8
26/05:30am 8.7 4.1 5.4 80 1.5 SSW 19 22 10 12 1017.3 1017.3 3.8
26/05:00am 8.7 3.1 5.3 79 1.5 SSW 24 39 13 21 1017.0 1017.0 3.8
26/04:30am 9.7 3.8 5.7 76 1.8 SSW 26 32 14 17 1016.5 1016.5 3.6
26/04:00am 9.3 3.7 5.3 76 1.8 SSW 24 33 13 18 1016.2 1016.2 3.6
26/03:30am 9.9 2.4 6.1 77 1.8 SW 35 41 19 22 1015.6 1015.7 3.6
26/03:00am 9.5 3.2 5.7 77 1.7 SW 28 33 15 18 1015.4 1015.5 3.6
26/02:30am 9.6 2.1 6.1 79 1.6 SW 35 50 19 27 1014.9 1015.0 3.6
26/02:00am 9.0 -0.1 5.7 80 1.5 SW 43 54 23 29 1014.6 1014.7 3.6
26/01:30am 8.8 1.1 5.5 80 1.5 SW 35 43 19 23 1014.2 1014.3 3.6
26/01:00am 9.6 2.0 6.0 78 1.7 SW 35 57 19 31 1013.5 1013.6 3.4
26/12:30am 9.4 1.4 5.9 79 1.6 SW 37 44 20 24 1013.6 1013.7 3.4
26/12:00am 9.1 0.0 6.0 81 1.4 SSW 43 50 23 27 1013.1 1013.2 3.4
 
Date/Time
EST
Temp
°C
App
Temp
°C
Dew
Point
°C
Rel
Hum
%
Delta-T
°C
Wind Press
QNH
hPa
Press
MSL
hPa
Rain since
9am
mm
Dir  Spd
km/h
Gust
km/h
Spd
kts
Gust
kts
25/11:30pm 9.1 1.9 5.8 80 1.5 SW 33 39 18 21 1013.3 1013.4 3.4
25/11:00pm 8.6 -1.2 5.4 80 1.4 SW 46 56 25 30 1013.0 1013.1 3.4
25/10:30pm 9.0 -0.5 4.8 75 1.9 WSW 44 61 24 33 1012.8 1012.9 3.2
25/10:23pm 10.2 2.2 5.6 73 2.1 SW 37 61 20 33 1012.3 1012.4 3.2

Other Formats:

Comma delimited format used in spreadsheet applications
http://www.bom.gov.au/fwo/IDT60801/IDT60801.94974.axf

JavaScript Object Notation format (JSON) in row-major order
http://www.bom.gov.au/fwo/IDT60801/IDT60801.94974.json